Main page
METAR-TAF:

METAR-TAF

Airports :

Kish, Iran

Kish International Airport

latitude: 26-31-36N, longitude: 053-58-54E, elevation: 30 m

Current weather observation

The report was made 51 minutes ago, at 09:00 UTC
Wind 8 kt from the West/Southwest
Temperature 33°C
Humidity 67%
Pressure 1008 hPa
Visibility: 6000 m

METAR: OIBK 220900Z 24008KT 6000 NSC 33/26 Q1008

Time: 13:21 (09:51 UTC)

Forecast

The report was made 4 hours and 21 minutes ago, at 05:30 UTC
Forecast valid from 22 at 06 UTC to 23 at 12 UTC
Wind 10 kt from the North/Northwest
Visibility: 6000 m
Temporary
from 22 at 12 UTC to 22 at 18 UTC
Wind 14 kt from the Northwest with gusts up to 23 kt
Visibility: 3000 m
sand
Probability 40%
from 23 at 01 UTC to 23 at 04 UTC
Visibility: 1500 m
mist
Becoming
from 23 at 04 UTC to 23 at 06 UTC
Wind 6 kt from the North/Northwest
Visibility: 4000 m
haze

TAF: OIBK 220530Z 2206/2312 34005MPS 6000 NSC TEMPO 2212/2218 31007G12MPS 3000 SA PROB40 2301/2304 1500 BR BECMG 2304/2306 34003MPS 4000 HZ

Weather observations and forecasts of more than 4000 airports (METAR and TAF reports).

The available stations are represented by yellow and red dots on the map.

Hover mouse over dot to see the name of the station.

Then click to see weather observations and forecasts.

To change the map : click on the green buttons with a black cross to zoom in, on the green button with a dash to zoom out, or on the green arrows for adjacent maps.


METAR-TAF: